Accueil
METAR-TAF:

METAR-TAF

Aéroports :

Aérodrome de Payerne

Payerne, Suisse

latitude: 46-49N, longitude: 006-57E, altitude: 490 m

Observation

Le bulletin a été fait il y a 31 minutes, à 06:20 UTC
Vent 4 kt de est/nord-est, variant entre nord et est
Température 5°C
Humidité 87%
Pression 1017 hPa
Visibilité: 5000 m
Nuages fragmentés à une hauteur de 2700 ft
Nuages fragmentés à une hauteur de 3500 ft
Nuages fragmentés à une hauteur de 5900 ft

METAR: LSMP 080620Z AUTO 06004KT 010V080 5000NDV BKN027 BKN035 BKN059 05/03 Q1017 RMK

Heure: 07:51 (06:51 UTC)


TAF: absent

Observations et prévisions météorologiques de plus de 4000 aéroports (messages METAR et TAF).

Les stations disponibles sont représentées par des disques jaunes et rouges sur la carte.

Passer la souris dessus pour voir le nom de la station.

Cliquer dessus pour voir les observations et prévisions météorologiques.

Pour changer de carte: cliquez sur les boutons verts avec une croix noire pour zoomer, sur le bouton vert avec un tiret pour effectuer un zoom arrière, ou sur les flèches vertes pour les cartes adjacentes.


METAR-TAF: